Time,TemperatureF,DewpointF,PressureIn,WindDirection,WindDirectionDegrees,WindSpeedMPH,WindSpeedGustMPH,Humidity,HourlyPrecipIn,Conditions,Clouds,dailyrainin,SoftwareType,DateUTC
2013-03-03 00:03:00,28.1,26.0,29.65,West,269,0.0,1.0,90,0.00,,,0.00,weatherlink.com 1.10,2013-03-03 05:03:00,
2013-03-03 00:19:00,28.0,26.0,29.65,West,269,0.0,3.0,90,0.00,,,0.00,weatherlink.com 1.10,2013-03-03 05:19:00,
2013-03-03 00:33:00,28.0,26.0,29.65,SW,219,1.0,3.0,90,0.00,,,0.00,weatherlink.com 1.10,2013-03-03 05:33:00,
2013-03-03 00:48:00,28.0,25.0,29.64,SW,220,0.0,3.0,89,0.00,,,0.00,weatherlink.com 1.10,2013-03-03 05:48:00,
2013-03-03 01:03:00,28.1,25.0,29.64,SW,220,0.0,2.0,89,0.00,,,0.00,weatherlink.com 1.10,2013-03-03 06:03:00,
2013-03-03 01:18:00,28.1,25.0,29.64,SW,220,0.0,2.0,89,0.00,,,0.00,weatherlink.com 1.10,2013-03-03 06:18:00,
2013-03-03 01:33:00,28.0,25.0,29.64,SW,220,0.0,3.0,89,0.00,,,0.00,weatherlink.com 1.10,2013-03-03 06:33:00,
2013-03-03 01:48:00,28.1,25.0,29.64,SW,220,0.0,2.0,89,0.00,,,0.00,weatherlink.com 1.10,2013-03-03 06:48:00,
2013-03-03 02:03:00,28.0,25.0,29.63,SW,220,0.0,1.0,88,0.00,,,0.00,weatherlink.com 1.10,2013-03-03 07:03:00,
2013-03-03 02:18:00,27.9,25.0,29.63,SW,220,1.0,1.0,89,0.00,,,0.00,weatherlink.com 1.10,2013-03-03 07:18:00,
2013-03-03 02:33:00,27.7,25.0,29.63,SW,220,0.0,3.0,90,0.00,,,0.00,weatherlink.com 1.10,2013-03-03 07:33:00,
2013-03-03 02:48:00,27.5,25.0,29.62,SW,221,0.0,2.0,91,0.00,,,0.00,weatherlink.com 1.10,2013-03-03 07:48:00,
2013-03-03 03:03:00,27.3,25.0,29.62,SW,221,0.0,2.0,91,0.00,,,0.00,weatherlink.com 1.10,2013-03-03 08:03:00,
2013-03-03 03:18:00,27.4,25.0,29.62,SW,225,0.0,2.0,91,0.00,,,0.00,weatherlink.com 1.10,2013-03-03 08:18:00,
2013-03-03 03:33:00,27.4,25.0,29.62,SW,225,0.0,1.0,90,0.00,,,0.00,weatherlink.com 1.10,2013-03-03 08:33:00,
2013-03-03 03:48:00,27.4,25.0,29.62,SW,225,0.0,2.0,90,0.00,,,0.00,weatherlink.com 1.10,2013-03-03 08:48:00,
2013-03-03 04:03:00,27.4,25.0,29.62,SW,225,0.0,1.0,90,0.00,,,0.00,weatherlink.com 1.10,2013-03-03 09:03:00,
2013-03-03 04:18:00,27.3,25.0,29.62,SW,225,0.0,2.0,90,0.00,,,0.00,weatherlink.com 1.10,2013-03-03 09:18:00,
2013-03-03 04:33:00,27.2,25.0,29.62,SW,225,0.0,0.0,91,0.00,,,0.00,weatherlink.com 1.10,2013-03-03 09:33:00,
2013-03-03 04:48:00,27.1,25.0,29.62,SW,225,0.0,0.0,91,0.00,,,0.00,weatherlink.com 1.10,2013-03-03 09:48:00,
2013-03-03 05:03:00,27.1,25.0,29.62,SW,225,0.0,0.0,91,0.00,,,0.00,weatherlink.com 1.10,2013-03-03 10:03:00,
2013-03-03 05:18:00,27.0,25.0,29.62,SW,225,0.0,1.0,91,0.00,,,0.00,weatherlink.com 1.10,2013-03-03 10:18:00,
2013-03-03 05:33:00,26.9,25.0,29.63,SW,225,0.0,3.0,91,0.00,,,0.00,weatherlink.com 1.10,2013-03-03 10:33:00,
2013-03-03 05:48:00,26.9,25.0,29.63,SW,225,0.0,1.0,91,0.00,,,0.00,weatherlink.com 1.10,2013-03-03 10:48:00,
2013-03-03 06:03:00,26.7,25.0,29.63,SW,225,0.0,1.0,91,0.00,,,0.00,weatherlink.com 1.10,2013-03-03 11:03:00,
2013-03-03 06:18:00,26.6,25.0,29.63,SW,225,0.0,2.0,92,0.00,,,0.00,weatherlink.com 1.10,2013-03-03 11:18:00,
2013-03-03 06:33:00,26.6,24.0,29.63,SW,225,0.0,0.0,91,0.00,,,0.00,weatherlink.com 1.10,2013-03-03 11:33:00,
2013-03-03 06:48:00,26.6,24.0,29.64,SW,225,1.0,1.0,91,0.00,,,0.00,weatherlink.com 1.10,2013-03-03 11:48:00,
2013-03-03 07:03:00,26.7,25.0,29.64,SW,225,0.0,2.0,91,0.00,,,0.00,weatherlink.com 1.10,2013-03-03 12:03:00,
2013-03-03 07:18:00,26.9,25.0,29.64,SW,225,0.0,1.0,91,0.00,,,0.00,weatherlink.com 1.10,2013-03-03 12:18:00,
2013-03-03 07:34:00,27.0,25.0,29.64,SW,225,2.0,2.0,91,0.00,,,0.00,weatherlink.com 1.10,2013-03-03 12:34:00,
2013-03-03 07:48:00,27.4,25.0,29.64,SW,225,0.0,1.0,91,0.00,,,0.00,weatherlink.com 1.10,2013-03-03 12:48:00,
2013-03-03 08:03:00,27.6,25.0,29.64,SW,225,0.0,1.0,91,0.00,,,0.00,weatherlink.com 1.10,2013-03-03 13:03:00,
2013-03-03 08:18:00,27.8,26.0,29.64,SW,225,0.0,1.0,91,0.00,,,0.00,weatherlink.com 1.10,2013-03-03 13:18:00,
2013-03-03 08:33:00,28.0,26.0,29.63,SW,225,0.0,1.0,90,0.00,,,0.00,weatherlink.com 1.10,2013-03-03 13:33:00,
2013-03-03 08:48:00,28.5,26.0,29.63,SW,225,0.0,1.0,89,0.00,,,0.00,weatherlink.com 1.10,2013-03-03 13:48:00,
2013-03-03 09:03:00,29.0,26.0,29.62,SW,225,0.0,0.0,88,0.00,,,0.00,weatherlink.com 1.10,2013-03-03 14:03:00,
2013-03-03 09:19:00,30.3,26.0,29.62,WSW,244,3.0,3.0,85,0.01,,,0.01,weatherlink.com 1.10,2013-03-03 14:19:00,
2013-03-03 09:34:00,30.3,25.0,29.62,West,279,1.0,4.0,82,0.02,,,0.02,weatherlink.com 1.10,2013-03-03 14:34:00,
2013-03-03 09:49:00,30.9,26.0,29.61,West,279,0.0,5.0,82,0.03,,,0.03,weatherlink.com 1.10,2013-03-03 14:49:00,
2013-03-03 10:04:00,31.9,27.0,29.61,West,266,1.0,4.0,81,0.04,,,0.04,weatherlink.com 1.10,2013-03-03 15:04:00,
2013-03-03 10:19:00,32.7,27.0,29.61,SSW,202,0.0,4.0,78,0.03,,,0.04,weatherlink.com 1.10,2013-03-03 15:19:00,
2013-03-03 10:34:00,33.3,27.0,29.60,SW,229,1.0,4.0,76,0.03,,,0.05,weatherlink.com 1.10,2013-03-03 15:34:00,
2013-03-03 10:49:00,34.5,27.0,29.60,WNW,284,2.0,8.0,74,0.02,,,0.05,weatherlink.com 1.10,2013-03-03 15:49:00,
2013-03-03 11:04:00,35.6,28.0,29.59,NW,319,0.0,4.0,74,0.02,,,0.06,weatherlink.com 1.10,2013-03-03 16:04:00,
2013-03-03 11:19:00,35.8,27.0,29.59,West,275,3.0,5.0,71,0.02,,,0.06,weatherlink.com 1.10,2013-03-03 16:19:00,
2013-03-03 11:34:00,37.0,28.0,29.59,SW,229,4.0,6.0,70,0.01,,,0.06,weatherlink.com 1.10,2013-03-03 16:34:00,
2013-03-03 11:49:00,37.4,28.0,29.58,WNW,286,2.0,7.0,69,0.01,,,0.06,weatherlink.com 1.10,2013-03-03 16:49:00,
2013-03-03 12:04:00,37.5,29.0,29.58,West,280,3.0,6.0,70,0.00,,,0.06,weatherlink.com 1.10,2013-03-03 17:04:00,
2013-03-03 12:19:00,37.0,28.0,29.57,WNW,289,3.0,8.0,71,0.00,,,0.06,weatherlink.com 1.10,2013-03-03 17:19:00,
2013-03-03 12:34:00,36.8,28.0,29.57,WNW,289,2.0,9.0,71,0.00,,,0.06,weatherlink.com 1.10,2013-03-03 17:34:00,
2013-03-03 12:49:00,36.6,28.0,29.56,West,271,6.0,9.0,71,0.00,,,0.06,weatherlink.com 1.10,2013-03-03 17:49:00,
2013-03-03 13:04:00,36.7,28.0,29.56,WNW,302,3.0,11.0,71,0.00,,,0.06,weatherlink.com 1.10,2013-03-03 18:04:00,
2013-03-03 13:19:00,36.6,28.0,29.55,WNW,294,3.0,11.0,71,0.00,,,0.06,weatherlink.com 1.10,2013-03-03 18:19:00,
2013-03-03 13:34:00,36.4,28.0,29.55,West,281,6.0,14.0,71,0.00,,,0.06,weatherlink.com 1.10,2013-03-03 18:34:00,
2013-03-03 13:49:00,36.1,27.0,29.55,NW,308,6.0,12.0,70,0.00,,,0.06,weatherlink.com 1.10,2013-03-03 18:49:00,
2013-03-03 14:04:00,36.1,28.0,29.55,WNW,288,8.0,11.0,71,0.00,,,0.06,weatherlink.com 1.10,2013-03-03 19:04:00,
2013-03-03 14:19:00,36.0,27.0,29.55,West,265,7.0,13.0,70,0.00,,,0.06,weatherlink.com 1.10,2013-03-03 19:19:00,
2013-03-03 14:34:00,36.5,27.0,29.55,WNW,298,5.0,13.0,69,0.00,,,0.06,weatherlink.com 1.10,2013-03-03 19:34:00,
2013-03-03 14:51:00,36.1,27.0,29.55,WSW,246,7.0,11.0,70,0.00,,,0.06,weatherlink.com 1.10,2013-03-03 19:51:00,
2013-03-03 15:04:00,36.4,27.0,29.55,WNW,288,3.0,7.0,70,0.00,,,0.06,weatherlink.com 1.10,2013-03-03 20:04:00,
2013-03-03 15:19:00,36.1,28.0,29.55,West,270,3.0,9.0,71,0.00,,,0.06,weatherlink.com 1.10,2013-03-03 20:19:00,
2013-03-03 15:34:00,35.8,27.0,29.56,West,281,6.0,11.0,70,0.00,,,0.06,weatherlink.com 1.10,2013-03-03 20:34:00,
2013-03-03 15:49:00,35.9,27.0,29.56,WNW,283,2.0,9.0,71,0.00,,,0.06,weatherlink.com 1.10,2013-03-03 20:49:00,
2013-03-03 16:04:00,36.3,28.0,29.57,North,355,3.0,7.0,71,0.00,,,0.06,weatherlink.com 1.10,2013-03-03 21:04:00,
2013-03-03 16:19:00,35.9,28.0,29.57,WNW,298,7.0,12.0,72,0.00,,,0.06,weatherlink.com 1.10,2013-03-03 21:19:00,
2013-03-03 16:34:00,35.3,27.0,29.57,NNW,328,2.0,9.0,73,0.00,,,0.06,weatherlink.com 1.10,2013-03-03 21:34:00,
2013-03-03 16:49:00,34.8,27.0,29.58,NNW,335,5.0,8.0,73,0.00,,,0.06,weatherlink.com 1.10,2013-03-03 21:49:00,
2013-03-03 17:04:00,34.4,27.0,29.59,NW,320,10.0,13.0,75,0.00,,,0.06,weatherlink.com 1.10,2013-03-03 22:04:00,
2013-03-03 17:19:00,33.7,27.0,29.59,WNW,286,6.0,11.0,76,0.00,,,0.06,weatherlink.com 1.10,2013-03-03 22:19:00,
2013-03-03 17:34:00,33.2,26.0,29.60,WNW,290,5.0,13.0,76,0.00,,,0.06,weatherlink.com 1.10,2013-03-03 22:34:00,
2013-03-03 17:49:00,32.9,26.0,29.60,NW,317,7.0,10.0,77,0.00,,,0.06,weatherlink.com 1.10,2013-03-03 22:49:00,
2013-03-03 18:05:00,32.8,26.0,29.60,West,278,3.0,9.0,77,0.00,,,0.06,weatherlink.com 1.10,2013-03-03 23:05:00,
2013-03-03 18:20:00,32.7,27.0,29.61,West,263,5.0,9.0,78,0.00,,,0.06,weatherlink.com 1.10,2013-03-03 23:20:00,
2013-03-03 18:35:00,32.5,26.0,29.61,WNW,292,4.0,11.0,78,0.00,,,0.06,weatherlink.com 1.10,2013-03-03 23:35:00,
2013-03-03 18:50:00,32.4,26.0,29.61,NW,316,4.0,9.0,78,0.00,,,0.06,weatherlink.com 1.10,2013-03-03 23:50:00,
2013-03-03 19:05:00,32.2,26.0,29.61,WNW,292,4.0,12.0,78,0.00,,,0.06,weatherlink.com 1.10,2013-03-04 00:05:00,
2013-03-03 19:20:00,32.1,26.0,29.61,WNW,296,4.0,12.0,77,0.00,,,0.06,weatherlink.com 1.10,2013-03-04 00:20:00,
2013-03-03 19:35:00,31.8,25.0,29.61,WNW,296,6.0,12.0,76,0.00,,,0.06,weatherlink.com 1.10,2013-03-04 00:35:00,
2013-03-03 19:50:00,31.6,25.0,29.61,West,260,5.0,14.0,76,0.00,,,0.06,weatherlink.com 1.10,2013-03-04 00:50:00,
2013-03-03 20:05:00,31.4,25.0,29.62,WNW,288,2.0,12.0,77,0.00,,,0.06,weatherlink.com 1.10,2013-03-04 01:05:00,
2013-03-03 20:20:00,31.3,25.0,29.63,WNW,300,3.0,9.0,77,0.00,,,0.06,weatherlink.com 1.10,2013-03-04 01:20:00,
2013-03-03 20:35:00,31.1,25.0,29.62,NNW,329,6.0,12.0,77,0.00,,,0.06,weatherlink.com 1.10,2013-03-04 01:35:00,
2013-03-03 20:50:00,31.0,25.0,29.63,WNW,287,3.0,13.0,77,0.00,,,0.06,weatherlink.com 1.10,2013-03-04 01:50:00,
2013-03-03 21:05:00,30.9,25.0,29.63,West,277,5.0,11.0,78,0.00,,,0.06,weatherlink.com 1.10,2013-03-04 02:05:00,
2013-03-03 21:20:00,30.8,25.0,29.62,West,269,8.0,11.0,78,0.00,,,0.06,weatherlink.com 1.10,2013-03-04 02:20:00,
2013-03-03 21:35:00,30.6,25.0,29.62,WNW,286,7.0,12.0,78,0.00,,,0.06,weatherlink.com 1.10,2013-03-04 02:35:00,
2013-03-03 21:50:00,30.3,24.0,29.62,WNW,287,6.0,12.0,78,0.00,,,0.06,weatherlink.com 1.10,2013-03-04 02:50:00,
2013-03-03 22:07:00,30.1,24.0,29.62,WNW,298,2.0,14.0,78,0.00,,,0.06,weatherlink.com 1.10,2013-03-04 03:07:00,
2013-03-03 22:20:00,29.9,24.0,29.62,NW,319,5.0,9.0,78,0.00,,,0.06,weatherlink.com 1.10,2013-03-04 03:20:00,
2013-03-03 22:35:00,29.6,24.0,29.62,WNW,289,2.0,8.0,79,0.00,,,0.06,weatherlink.com 1.10,2013-03-04 03:35:00,
2013-03-03 22:50:00,29.5,23.0,29.62,WNW,284,6.0,10.0,78,0.00,,,0.06,weatherlink.com 1.10,2013-03-04 03:50:00,
2013-03-03 23:05:00,29.5,23.0,29.62,North,355,8.0,11.0,78,0.00,,,0.06,weatherlink.com 1.10,2013-03-04 04:05:00,
2013-03-03 23:20:00,29.3,23.0,29.62,NW,324,5.0,12.0,78,0.00,,,0.06,weatherlink.com 1.10,2013-03-04 04:20:00,
2013-03-03 23:35:00,29.3,23.0,29.61,West,278,5.0,11.0,78,0.00,,,0.06,weatherlink.com 1.10,2013-03-04 04:35:00,
2013-03-03 23:50:00,29.1,23.0,29.61,West,263,5.0,15.0,78,0.00,,,0.06,weatherlink.com 1.10,2013-03-04 04:50:00,